Latest Weather Observations for Redcliffe

IDQ60801

Issued at 10:02 am EST Friday 30 January 2015 (issued every 30 minutes, with the page automatically refreshed every 10 minutes)

About weather observations | Map of weather stations | Latest weather observations for QLD | Other Formats
Station Details ID: 040958 Name: REDCLIFFE Lat: -27.22 Lon: 153.09 Height: 12.6 m
Data from the previous 72 hours. | See also: Recent months at Redcliffe
Date/Time
EST
Temp
°C
App
Temp
°C
Dew
Point
Rel
Hum
%
Delta-T
°C
Wind Press
QNH
hPa
Press
MSL
hPa
Rain
since 9 am
mm
Dir
 
Spd
km/h
Gust
km/h
Spd
kts
Gust
kts
30/10:00am 25.3 26.8 18.0 64 4.6 E 7 9 4 5 1010.0 1009.9 0.0
30/09:30am 25.3 26.7 18.7 67 4.2 SSE 9 11 5 6 1010.0 1009.9 0.0
30/09:00am 24.6 26.7 19.0 71 3.6 WSW 6 11 3 6 1010.0 1009.9 44.2
30/08:30am 23.4 24.8 17.8 71 3.5 WSW 7 11 4 6 1010.1 1010.0 44.2
30/08:00am 22.1 23.2 18.1 78 2.5 W 9 11 5 6 1010.2 1010.1 44.2
30/07:30am 21.4 22.7 18.4 83 1.9 NNW 9 11 5 6 1010.1 1010.0 44.2
30/07:00am 21.2 22.6 18.6 85 1.6 W 9 11 5 6 1009.8 1009.7 44.2
30/06:30am 20.7 21.9 18.3 86 1.5 W 9 9 5 5 1009.6 1009.5 44.2
30/06:00am 20.6 22.0 18.7 89 1.2 WSW 9 11 5 6 1009.4 1009.3 44.2
30/05:30am 20.5 21.9 18.6 89 1.2 SE 9 11 5 6 1009.1 1009.0 44.2
30/05:00am 20.4 20.5 18.3 88 1.3 S 15 19 8 10 1009.0 1008.9 43.6
30/04:30am 20.8 20.5 18.2 85 1.6 SE 17 22 9 12 1008.8 1008.7 43.0
30/04:00am 21.1 20.5 18.5 85 1.6 ESE 19 26 10 14 1008.8 1008.7 43.0
30/03:30am 21.8 20.2 18.4 81 2.1 SE 24 30 13 16 1008.8 1008.7 42.8
30/03:00am 22.3 19.7 17.7 75 2.9 ESE 28 32 15 17 1008.7 1008.6 42.8
30/02:30am 21.8 19.2 18.6 82 2.0 SE 30 32 16 17 1008.9 1008.8 42.8
30/02:00am 21.5 18.9 19.4 88 1.3 SE 32 35 17 19 1009.0 1008.9 42.8
30/01:30am 20.9 18.2 19.2 90 1.1 SSE 32 37 17 20 1009.3 1009.2 42.8
30/01:00am 21.0 18.3 19.3 90 1.1 SSE 32 37 17 20 1009.5 1009.4 41.2
30/12:30am 21.6 20.5 19.5 88 1.3 ESE 24 30 13 16 1009.3 1009.2 8.4
30/12:00am 22.5 21.8 19.5 83 1.9 ESE 22 30 12 16 1009.5 1009.4 0.2
 
Date/Time
EST
Temp
°C
App
Temp
°C
Dew
Point
Rel
Hum
%
Delta-T
°C
Wind Press
QNH
hPa
Press
MSL
hPa
Rain
since 9 am
mm
Dir
 
Spd
km/h
Gust
km/h
Spd
kts
Gust
kts
29/11:30pm 23.6 22.8 18.5 73 3.2 ESE 20 26 11 14 1009.6 1009.5 0.0
29/11:00pm 24.5 23.2 18.2 68 4.0 ESE 22 28 12 15 1009.7 1009.6 0.0
29/10:30pm 24.6 23.1 17.8 66 4.3 ESE 22 28 12 15 1009.7 1009.6 0.0
29/10:00pm 24.2 22.7 17.7 67 4.1 ESE 22 28 12 15 1009.8 1009.7 0.0
29/09:30pm 24.3 20.8 17.5 66 4.2 SE 32 33 17 18 1009.9 1009.8 0.0
29/09:00pm 24.8 23.4 18.0 66 4.3 ESE 22 28 12 15 1009.6 1009.5 0.0
29/08:30pm 25.0 23.4 17.5 63 4.7 ESE 22 28 12 15 1009.5 1009.4 0.0
29/08:00pm 25.0 23.4 17.5 63 4.7 ESE 22 28 12 15 1009.2 1009.1 0.0
29/07:30pm 24.9 23.5 17.1 62 4.8 ESE 20 26 11 14 1009.1 1009.0 0.0
29/07:00pm 24.8 22.6 17.0 62 4.8 ESE 24 28 13 15 1008.7 1008.6 0.0
29/06:30pm 24.8 22.6 17.0 62 4.8 ESE 24 28 13 15 1008.3 1008.2 0.0
29/06:00pm 25.0 22.7 17.7 64 4.6 ESE 26 33 14 18 1007.8 1007.7 0.0
29/05:30pm 25.5 23.4 17.2 60 5.2 ESE 24 30 13 16 1007.6 1007.5 0.0
29/05:00pm 25.4 22.7 16.5 58 5.5 SE 26 30 14 16 1007.4 1007.3 0.0
29/04:30pm 25.6 22.9 17.5 61 5.1 ESE 28 35 15 19 1007.0 1006.9 0.0
29/04:00pm 25.8 22.6 16.4 56 5.8 ESE 28 32 15 17 1006.8 1006.7 0.0
29/03:30pm 26.3 23.2 16.5 54 6.1 ESE 28 32 15 17 1007.0 1006.9 0.0
29/03:00pm 26.6 23.2 15.9 51 6.6 ESE 28 33 15 18 1007.0 1006.9 0.0
29/02:30pm 26.6 23.5 15.6 50 6.7 ESE 26 30 14 16 1007.1 1007.0 0.0
29/02:00pm 27.0 24.3 16.6 53 6.5 ESE 26 32 14 17 1007.3 1007.2 0.0
29/01:30pm 27.2 24.1 15.6 49 7.1 ESE 26 30 14 16 1007.5 1007.4 0.0
29/01:00pm 27.1 23.4 16.1 51 6.8 SE 30 35 16 19 1007.6 1007.5 0.0
29/12:30pm 26.9 23.3 16.2 52 6.6 SE 30 35 16 19 1007.9 1007.8 0.0
29/12:00pm 26.0 22.3 16.0 54 6.1 SE 30 35 16 19 1008.1 1008.0 0.0
29/11:30am 26.7 23.1 16.3 53 6.4 SE 30 33 16 18 1008.5 1008.4 0.0
29/11:00am 26.7 23.7 16.9 55 6.1 SSE 28 33 15 18 1008.7 1008.6 0.0
29/10:30am 26.4 22.4 16.3 53 6.2 SSE 32 41 17 22 1009.0 1008.9 0.0
29/10:00am 25.6 23.6 15.6 54 6.1 S 20 26 11 14 1009.1 1009.0 0.0
29/09:30am 24.0 20.9 14.4 55 5.7 S 24 30 13 16 1009.0 1008.9 0.0
29/09:00am 24.6 21.2 14.7 54 5.9 S 26 33 14 18 1009.0 1008.9 0.2
29/08:30am 23.3 21.7 13.8 55 5.5 S 15 20 8 11 1008.9 1008.8 0.2
29/08:00am 22.5 20.8 13.6 57 5.2 SSW 15 20 8 11 1008.8 1008.7 0.2
29/07:30am 21.8 20.1 13.7 60 4.7 SSW 15 19 8 10 1008.5 1008.4 0.2
29/07:00am 21.4 19.4 13.8 62 4.4 SSW 17 20 9 11 1008.5 1008.4 0.2
29/06:30am 21.1 19.2 14.3 65 4.0 SSW 17 22 9 12 1008.0 1007.9 0.2
29/06:00am 20.7 19.8 14.8 69 3.5 SW 13 19 7 10 1007.9 1007.8 0.2
29/05:30am 20.6 19.2 14.5 68 3.6 SW 15 20 8 11 1007.7 1007.6 0.2
29/05:00am 20.9 19.0 15.2 70 3.4 S 19 28 10 15 1007.1 1007.0 0.2
29/04:30am 21.0 19.0 14.9 68 3.6 SSW 19 26 10 14 1006.9 1006.8 0.2
29/04:00am 21.2 19.6 15.1 68 3.6 SSW 17 24 9 13 1007.0 1006.9 0.2
29/03:30am 21.3 19.8 15.2 68 3.6 SSW 17 26 9 14 1006.8 1006.7 0.2
29/03:00am 21.4 19.8 15.0 67 3.8 SW 17 26 9 14 1006.7 1006.6 0.2
29/02:30am 21.6 20.1 15.2 67 3.8 SSW 17 26 9 14 1006.6 1006.5 0.2
29/02:00am 21.6 20.5 15.4 68 3.7 SSW 15 22 8 12 1006.8 1006.7 0.2
29/01:30am 21.6 20.6 15.7 69 3.5 SW 15 26 8 14 1006.8 1006.7 0.2
29/01:00am 21.7 20.9 16.0 70 3.4 SW 15 24 8 13 1007.5 1007.4 0.2
29/12:30am 21.8 21.2 15.6 68 3.7 SSW 13 19 7 10 1007.6 1007.5 0.2
29/12:00am 21.9 21.1 16.0 69 3.6 SSW 15 24 8 13 1007.7 1007.6 0.2
 
Date/Time
EST
Temp
°C
App
Temp
°C
Dew
Point
Rel
Hum
%
Delta-T
°C
Wind Press
QNH
hPa
Press
MSL
hPa
Rain
since 9 am
mm
Dir
 
Spd
km/h
Gust
km/h
Spd
kts
Gust
kts
28/11:30pm 21.9 21.4 16.0 69 3.6 SSW 13 15 7 8 1008.1 1008.0 0.2
28/11:00pm 22.0 21.0 15.6 67 3.8 SSW 15 20 8 11 1008.1 1008.0 0.2
28/10:30pm 22.4 21.1 15.7 66 4.0 SSW 17 26 9 14 1008.1 1008.0 0.2
28/10:00pm 22.7 19.3 15.8 65 4.2 S 28 33 15 18 1008.1 1008.0 0.2
28/09:30pm 23.1 19.7 15.9 64 4.3 S 28 39 15 21 1007.9 1007.8 0.2
28/09:00pm 23.4 20.9 16.2 64 4.4 SSW 24 33 13 18 1007.8 1007.7 0.2
28/08:30pm 23.7 18.6 15.7 61 4.8 S 37 46 20 25 1007.6 1007.5 0.2
28/08:00pm 23.7 18.9 15.7 61 4.8 S 35 44 19 24 1007.5 1007.4 0.2
28/07:30pm 23.7 18.7 16.0 62 4.7 S 37 43 20 23 1007.2 1007.1 0.2
28/07:00pm 24.0 19.4 16.0 61 4.9 S 35 43 19 23 1007.1 1007.0 0.2
28/06:30pm 24.2 19.1 15.9 59 5.0 S 37 48 20 26 1006.8 1006.7 0.2
28/06:00pm 24.5 20.3 16.2 60 5.1 S 33 41 18 22 1006.4 1006.3 0.2
28/05:30pm 24.6 20.4 16.3 60 5.1 S 33 44 18 24 1006.1 1006.0 0.2
28/05:00pm 24.6 19.9 15.8 58 5.4 S 35 43 19 23 1005.8 1005.7 0.2
28/04:30pm 24.4 20.0 16.6 61 4.8 S 35 44 19 24 1005.7 1005.6 0.2
28/04:00pm 23.6 19.4 17.1 67 4.0 SSE 35 44 19 24 1005.6 1005.5 0.2
28/03:30pm 23.9 18.2 17.2 66 4.1 SSE 43 48 23 26 1005.4 1005.3 0.2
28/03:00pm 24.7 19.7 17.9 66 4.3 SSE 41 50 22 27 1005.1 1005.0 0.2
28/02:30pm 26.3 22.8 17.9 60 5.3 SE 33 43 18 23 1005.3 1005.2 0.2
28/02:00pm 26.8 24.1 16.7 54 6.3 SSE 26 32 14 17 1005.4 1005.3 0.2
28/01:30pm 26.0 24.8 17.1 58 5.5 S 19 26 10 14 1006.0 1005.9 0.2
28/01:00pm 25.4 23.8 16.0 56 5.8 S 19 26 10 14 1006.1 1006.0 0.2
28/12:30pm 25.9 23.9 17.5 59 5.3 S 24 32 13 17 1006.3 1006.2 0.2
28/12:00pm 25.4 23.4 17.3 61 5.1 S 24 30 13 16 1006.4 1006.3 0.2
28/11:30am 25.4 22.8 17.8 62 4.8 S 28 33 15 18 1006.4 1006.3 0.2
28/11:00am 25.4 22.0 17.6 62 4.9 S 32 37 17 20 1006.6 1006.5 0.2
28/10:30am 24.2 21.0 17.2 65 4.3 S 30 35 16 19 1006.7 1006.6 0.2
28/10:00am 23.4 22.5 18.1 72 3.3 S 20 28 11 15 1006.4 1006.3 0.2
28/09:30am 23.0 21.1 19.4 80 2.3 S 28 35 15 19 1006.7 1006.6 0.2
28/09:00am 21.9 20.9 17.9 78 2.5 SSW 20 30 11 16 1006.3 1006.2 2.2
28/08:30am 21.9 20.4 18.5 81 2.1 S 24 32 13 17 1006.4 1006.3 2.2
28/08:00am 21.3 19.1 17.9 81 2.1 S 26 33 14 18 1005.8 1005.7 2.2
28/07:30am 20.5 20.5 18.1 86 1.5 SSW 15 19 8 10 1005.8 1005.7 2.2
28/07:00am 20.1 20.1 17.3 84 1.7 SSW 13 17 7 9 1006.1 1006.0 1.8
28/06:30am 19.9 19.6 17.3 85 1.6 SW 15 24 8 13 1005.9 1005.8 1.8
28/06:00am 19.8 19.4 17.2 85 1.6 SSW 15 19 8 10 1005.5 1005.4 1.6
28/05:30am 19.9 19.6 17.3 85 1.6 SSW 15 22 8 12 1005.5 1005.4 1.4
28/05:00am 20.2 19.3 17.8 86 1.5 SSW 19 24 10 13 1005.3 1005.2 1.4
28/04:30am 20.6 20.1 17.8 84 1.7 SSW 17 26 9 14 1005.2 1005.1 1.0
28/04:00am 21.9 17.8 17.3 75 2.8 S 35 46 19 25 1005.1 1005.0 1.0
28/03:30am 22.0 18.1 16.9 73 3.1 S 33 41 18 22 1004.9 1004.8 1.0
28/03:00am 22.0 17.8 17.2 74 3.0 S 35 41 19 22 1005.2 1005.1 1.0
28/02:30am 22.0 18.0 17.6 76 2.7 S 35 41 19 22 1005.6 1005.5 1.0
28/02:00am 22.0 17.8 18.0 78 2.5 S 37 43 20 23 1005.7 1005.6 1.0
28/01:30am 22.2 17.9 18.6 80 2.3 S 39 44 21 24 1006.2 1006.1 1.0
28/01:00am 22.7 21.2 19.5 82 2.0 S 26 37 14 20 1006.3 1006.2 0.8
28/12:30am 23.4 20.1 19.3 78 2.6 SSE 35 41 19 22 1006.6 1006.5 0.6
28/12:00am 23.7 20.9 19.0 75 3.0 SSE 32 35 17 19 1007.1 1007.0 0.4
 
Date/Time
EST
Temp
°C
App
Temp
°C
Dew
Point
Rel
Hum
%
Delta-T
°C
Wind Press
QNH
hPa
Press
MSL
hPa
Rain
since 9 am
mm
Dir
 
Spd
km/h
Gust
km/h
Spd
kts
Gust
kts
27/11:30pm 24.4 21.2 18.6 70 3.7 SE 33 37 18 20 1007.0 1006.9 0.4
27/11:00pm 24.5 20.6 15.4 57 5.5 SE 30 35 16 19 1007.0 1006.9 0.4
27/10:30pm 24.3 22.5 19.6 75 3.0 SE 28 32 15 17 1007.0 1006.9 0.2
27/10:00pm 24.5 22.7 19.6 74 3.2 SE 28 35 15 19 1007.1 1007.0 0.0
27/09:30pm 25.3 23.1 18.7 67 4.2 SE 28 33 15 18 1007.4 1007.3 0.0
27/09:00pm 25.7 23.0 18.4 64 4.6 SE 30 35 16 19 1007.0 1006.9 0.0
27/08:30pm 25.7 23.0 18.4 64 4.6 ESE 30 35 16 19 1007.0 1006.9 0.0
27/08:00pm 25.8 23.4 19.0 66 4.4 ESE 30 37 16 20 1006.5 1006.4 0.0
27/07:30pm 25.8 23.1 19.2 67 4.2 ESE 32 37 17 20 1006.2 1006.1 0.0
27/07:00pm 25.9 22.9 18.6 64 4.7 SE 32 37 17 20 1006.2 1006.1 0.0
27/06:30pm 26.0 22.8 18.7 64 4.7 SE 33 41 18 22 1005.8 1005.7 0.0
27/06:00pm 26.2 22.9 18.3 61 5.0 ESE 33 39 18 21 1005.5 1005.4 0.0
27/05:30pm 26.3 23.2 18.9 63 4.7 ESE 33 39 18 21 1005.0 1004.9 0.0
27/05:00pm 26.6 23.8 19.0 63 4.9 ESE 32 39 17 21 1004.8 1004.7 0.0
27/04:30pm 26.9 24.3 19.8 65 4.6 ESE 33 41 18 22 1004.7 1004.6 0.0
27/04:00pm 27.1 24.4 19.7 64 4.8 ESE 33 39 18 21 1004.4 1004.3 0.0
27/03:30pm 27.9 25.3 19.9 61 5.2 ESE 33 37 18 20 1004.8 1004.7 0.0
27/03:00pm 28.1 25.9 20.4 63 5.1 ESE 32 35 17 19 1005.2 1005.1 0.0
27/02:30pm 28.0 25.8 20.3 63 5.1 ESE 32 35 17 19 1005.6 1005.5 0.0
27/02:00pm 28.4 25.7 19.3 57 5.9 ESE 32 35 17 19 1005.9 1005.8 0.0
27/01:30pm 28.3 26.2 19.8 60 5.5 ESE 30 33 16 18 1006.1 1006.0 0.0
27/01:00pm 28.4 26.0 19.9 60 5.6 ESE 32 35 17 19 1006.4 1006.3 0.0
27/12:30pm 28.8 27.2 20.8 62 5.3 ESE 30 33 16 18 1006.8 1006.7 0.0
27/12:00pm 29.6 30.2 22.1 64 5.1 SSE 22 26 12 14 1007.2 1007.1 0.0
27/11:30am 28.4 27.6 21.7 67 4.5 SSE 28 32 15 17 1007.6 1007.5 0.0
27/11:00am 28.6 28.1 21.4 65 4.8 SE 26 32 14 17 1008.0 1007.9 0.0
27/10:30am 28.0 27.5 20.0 61 5.2 ESE 22 26 12 14 1008.0 1007.9 0.0

Other Formats:

Comma delimited format used in spreadsheet applications
http://www.bom.gov.au/fwo/IDQ60801/IDQ60801.95591.axf

JavaScript Object Notation format (JSON) in row-major order
http://www.bom.gov.au/fwo/IDQ60801/IDQ60801.95591.json